sensor_id;sensor_type;location;lat;lon;timestamp;P1;durP1;ratioP1;P2;durP2;ratioP2
33162;SDS011;29282;45.656;11.302;2023-02-11T00:03:58;9.05;;;6.35;;
33162;SDS011;29282;45.656;11.302;2023-02-11T00:06:24;8.95;;;7.22;;
33162;SDS011;29282;45.656;11.302;2023-02-11T00:08:51;14.93;;;6.68;;
33162;SDS011;29282;45.656;11.302;2023-02-11T00:11:18;8.55;;;7.03;;
33162;SDS011;29282;45.656;11.302;2023-02-11T00:13:45;9.02;;;6.78;;
33162;SDS011;29282;45.656;11.302;2023-02-11T00:16:12;7.93;;;6.60;;
33162;SDS011;29282;45.656;11.302;2023-02-11T00:18:42;7.55;;;6.47;;
33162;SDS011;29282;45.656;11.302;2023-02-11T00:21:13;8.82;;;6.72;;
33162;SDS011;29282;45.656;11.302;2023-02-11T00:23:40;9.82;;;7.35;;
33162;SDS011;29282;45.656;11.302;2023-02-11T00:26:19;10.77;;;7.20;;
33162;SDS011;29282;45.656;11.302;2023-02-11T00:28:47;9.85;;;6.88;;
33162;SDS011;29282;45.656;11.302;2023-02-11T00:31:14;8.75;;;7.22;;
33162;SDS011;29282;45.656;11.302;2023-02-11T00:33:41;8.95;;;6.93;;
33162;SDS011;29282;45.656;11.302;2023-02-11T00:36:08;8.50;;;6.80;;
33162;SDS011;29282;45.656;11.302;2023-02-11T00:38:39;8.25;;;6.50;;
33162;SDS011;29282;45.656;11.302;2023-02-11T00:41:06;8.75;;;7.07;;
33162;SDS011;29282;45.656;11.302;2023-02-11T00:43:31;8.65;;;7.00;;
33162;SDS011;29282;45.656;11.302;2023-02-11T00:45:58;9.63;;;6.60;;
33162;SDS011;29282;45.656;11.302;2023-02-11T00:48:23;8.23;;;6.45;;
33162;SDS011;29282;45.656;11.302;2023-02-11T00:50:49;9.80;;;6.25;;
33162;SDS011;29282;45.656;11.302;2023-02-11T00:53:15;7.55;;;6.40;;
33162;SDS011;29282;45.656;11.302;2023-02-11T00:55:40;9.23;;;6.45;;
33162;SDS011;29282;45.656;11.302;2023-02-11T00:58:05;10.38;;;7.22;;
33162;SDS011;29282;45.656;11.302;2023-02-11T01:00:31;8.00;;;6.40;;
33162;SDS011;29282;45.656;11.302;2023-02-11T01:02:56;8.25;;;6.28;;
33162;SDS011;29282;45.656;11.302;2023-02-11T01:05:22;8.43;;;6.57;;
33162;SDS011;29282;45.656;11.302;2023-02-11T01:07:47;8.65;;;6.55;;
33162;SDS011;29282;45.656;11.302;2023-02-11T01:10:13;7.70;;;6.47;;
33162;SDS011;29282;45.656;11.302;2023-02-11T01:12:38;9.05;;;6.50;;
33162;SDS011;29282;45.656;11.302;2023-02-11T01:15:04;6.95;;;5.95;;
33162;SDS011;29282;45.656;11.302;2023-02-11T01:17:32;7.93;;;6.30;;
33162;SDS011;29282;45.656;11.302;2023-02-11T01:20:02;7.72;;;6.28;;
33162;SDS011;29282;45.656;11.302;2023-02-11T01:22:29;8.65;;;6.07;;
33162;SDS011;29282;45.656;11.302;2023-02-11T01:24:55;9.82;;;5.97;;
33162;SDS011;29282;45.656;11.302;2023-02-11T01:27:20;10.02;;;6.47;;
33162;SDS011;29282;45.656;11.302;2023-02-11T01:29:46;8.52;;;6.63;;
33162;SDS011;29282;45.656;11.302;2023-02-11T01:32:11;7.60;;;6.20;;
33162;SDS011;29282;45.656;11.302;2023-02-11T01:34:37;8.07;;;6.30;;
33162;SDS011;29282;45.656;11.302;2023-02-11T01:37:02;7.93;;;6.30;;
33162;SDS011;29282;45.656;11.302;2023-02-11T01:39:27;9.13;;;5.93;;
33162;SDS011;29282;45.656;11.302;2023-02-11T01:41:53;8.70;;;6.00;;
33162;SDS011;29282;45.656;11.302;2023-02-11T01:44:23;7.80;;;5.97;;
33162;SDS011;29282;45.656;11.302;2023-02-11T01:49:41;9.85;;;5.90;;
33162;SDS011;29282;45.656;11.302;2023-02-11T01:54:42;7.88;;;5.85;;
33162;SDS011;29282;45.656;11.302;2023-02-11T01:57:33;9.35;;;5.72;;
33162;SDS011;29282;45.656;11.302;2023-02-11T02:00:13;7.82;;;6.00;;
33162;SDS011;29282;45.656;11.302;2023-02-11T02:10:58;8.18;;;5.25;;
33162;SDS011;29282;45.656;11.302;2023-02-11T02:13:25;7.35;;;5.78;;
33162;SDS011;29282;45.656;11.302;2023-02-11T02:16:27;6.47;;;5.75;;
33162;SDS011;29282;45.656;11.302;2023-02-11T02:21:40;7.70;;;5.45;;
33162;SDS011;29282;45.656;11.302;2023-02-11T02:27:33;7.28;;;5.47;;
33162;SDS011;29282;45.656;11.302;2023-02-11T02:33:05;7.57;;;5.93;;
33162;SDS011;29282;45.656;11.302;2023-02-11T02:36:12;6.53;;;5.20;;
33162;SDS011;29282;45.656;11.302;2023-02-11T02:41:28;8.48;;;5.88;;
33162;SDS011;29282;45.656;11.302;2023-02-11T02:43:56;6.47;;;5.60;;
33162;SDS011;29282;45.656;11.302;2023-02-11T02:46:26;6.85;;;5.32;;
33162;SDS011;29282;45.656;11.302;2023-02-11T02:59:16;7.20;;;5.53;;
33162;SDS011;29282;45.656;11.302;2023-02-11T03:07:36;6.30;;;4.80;;
33162;SDS011;29282;45.656;11.302;2023-02-11T03:10:35;5.90;;;5.15;;
33162;SDS011;29282;45.656;11.302;2023-02-11T03:13:05;6.80;;;5.35;;
33162;SDS011;29282;45.656;11.302;2023-02-11T03:15:33;7.80;;;5.38;;
33162;SDS011;29282;45.656;11.302;2023-02-11T03:18:05;6.00;;;4.97;;
33162;SDS011;29282;45.656;11.302;2023-02-11T03:20:36;6.32;;;5.07;;
33162;SDS011;29282;45.656;11.302;2023-02-11T03:23:17;6.95;;;5.30;;
33162;SDS011;29282;45.656;11.302;2023-02-11T03:25:49;7.28;;;5.35;;
33162;SDS011;29282;45.656;11.302;2023-02-11T03:31:27;6.75;;;4.90;;
33162;SDS011;29282;45.656;11.302;2023-02-11T03:36:47;6.70;;;5.05;;
33162;SDS011;29282;45.656;11.302;2023-02-11T03:39:18;7.43;;;5.18;;
33162;SDS011;29282;45.656;11.302;2023-02-11T03:41:51;5.72;;;4.78;;
33162;SDS011;29282;45.656;11.302;2023-02-11T03:44:19;6.22;;;5.10;;
33162;SDS011;29282;45.656;11.302;2023-02-11T03:46:49;7.47;;;5.28;;
33162;SDS011;29282;45.656;11.302;2023-02-11T03:49:17;5.88;;;5.10;;
33162;SDS011;29282;45.656;11.302;2023-02-11T03:51:45;6.35;;;5.65;;
33162;SDS011;29282;45.656;11.302;2023-02-11T03:54:15;5.80;;;4.47;;
33162;SDS011;29282;45.656;11.302;2023-02-11T03:56:48;5.80;;;4.78;;
33162;SDS011;29282;45.656;11.302;2023-02-11T03:59:17;5.97;;;4.40;;
33162;SDS011;29282;45.656;11.302;2023-02-11T04:01:43;5.38;;;4.63;;
33162;SDS011;29282;45.656;11.302;2023-02-11T04:04:08;6.18;;;5.05;;
33162;SDS011;29282;45.656;11.302;2023-02-11T04:06:34;5.97;;;4.88;;
33162;SDS011;29282;45.656;11.302;2023-02-11T04:08:59;5.30;;;4.65;;
33162;SDS011;29282;45.656;11.302;2023-02-11T04:11:25;5.50;;;4.90;;
33162;SDS011;29282;45.656;11.302;2023-02-11T04:13:51;5.90;;;4.65;;
33162;SDS011;29282;45.656;11.302;2023-02-11T04:16:16;6.28;;;4.78;;
33162;SDS011;29282;45.656;11.302;2023-02-11T04:18:42;5.28;;;4.18;;
33162;SDS011;29282;45.656;11.302;2023-02-11T04:21:07;5.22;;;4.03;;
33162;SDS011;29282;45.656;11.302;2023-02-11T04:23:33;5.72;;;4.53;;
33162;SDS011;29282;45.656;11.302;2023-02-11T04:26:02;6.35;;;4.68;;
33162;SDS011;29282;45.656;11.302;2023-02-11T04:28:29;5.88;;;5.10;;
33162;SDS011;29282;45.656;11.302;2023-02-11T04:30:55;5.43;;;4.40;;
33162;SDS011;29282;45.656;11.302;2023-02-11T04:33:22;6.13;;;4.25;;
33162;SDS011;29282;45.656;11.302;2023-02-11T04:35:48;5.80;;;4.57;;
33162;SDS011;29282;45.656;11.302;2023-02-11T04:38:14;4.85;;;3.95;;
33162;SDS011;29282;45.656;11.302;2023-02-11T04:40:39;6.00;;;4.25;;
33162;SDS011;29282;45.656;11.302;2023-02-11T04:43:05;5.68;;;4.30;;
33162;SDS011;29282;45.656;11.302;2023-02-11T04:45:31;5.57;;;4.50;;
33162;SDS011;29282;45.656;11.302;2023-02-11T04:47:57;5.82;;;4.60;;
33162;SDS011;29282;45.656;11.302;2023-02-11T04:50:22;5.30;;;4.18;;
33162;SDS011;29282;45.656;11.302;2023-02-11T04:52:48;6.43;;;4.13;;
33162;SDS011;29282;45.656;11.302;2023-02-11T04:55:13;5.22;;;4.38;;
33162;SDS011;29282;45.656;11.302;2023-02-11T04:57:39;6.22;;;4.63;;
33162;SDS011;29282;45.656;11.302;2023-02-11T05:00:04;5.45;;;4.47;;
33162;SDS011;29282;45.656;11.302;2023-02-11T05:02:30;4.68;;;3.97;;
33162;SDS011;29282;45.656;11.302;2023-02-11T05:04:56;5.63;;;4.68;;
33162;SDS011;29282;45.656;11.302;2023-02-11T05:07:21;6.57;;;4.20;;
33162;SDS011;29282;45.656;11.302;2023-02-11T05:09:47;5.63;;;4.38;;
33162;SDS011;29282;45.656;11.302;2023-02-11T05:12:13;6.00;;;4.25;;
33162;SDS011;29282;45.656;11.302;2023-02-11T05:14:39;4.68;;;4.00;;
33162;SDS011;29282;45.656;11.302;2023-02-11T05:17:04;6.63;;;4.40;;
33162;SDS011;29282;45.656;11.302;2023-02-11T05:19:30;4.53;;;3.97;;
33162;SDS011;29282;45.656;11.302;2023-02-11T05:21:56;5.22;;;4.05;;
33162;SDS011;29282;45.656;11.302;2023-02-11T05:24:21;5.15;;;3.80;;
33162;SDS011;29282;45.656;11.302;2023-02-11T05:26:47;5.75;;;4.53;;
33162;SDS011;29282;45.656;11.302;2023-02-11T05:29:12;5.90;;;4.40;;
33162;SDS011;29282;45.656;11.302;2023-02-11T05:31:38;5.50;;;4.35;;
33162;SDS011;29282;45.656;11.302;2023-02-11T05:34:03;6.40;;;4.68;;
33162;SDS011;29282;45.656;11.302;2023-02-11T05:36:29;5.18;;;4.35;;
33162;SDS011;29282;45.656;11.302;2023-02-11T05:38:54;5.18;;;4.07;;
33162;SDS011;29282;45.656;11.302;2023-02-11T05:41:20;4.68;;;3.95;;
33162;SDS011;29282;45.656;11.302;2023-02-11T05:43:49;5.75;;;4.38;;
33162;SDS011;29282;45.656;11.302;2023-02-11T05:46:17;4.93;;;4.28;;
33162;SDS011;29282;45.656;11.302;2023-02-11T05:48:43;4.88;;;4.07;;
33162;SDS011;29282;45.656;11.302;2023-02-11T05:51:09;4.82;;;4.28;;
33162;SDS011;29282;45.656;11.302;2023-02-11T05:53:35;4.65;;;4.00;;
33162;SDS011;29282;45.656;11.302;2023-02-11T05:56:00;4.70;;;3.92;;
33162;SDS011;29282;45.656;11.302;2023-02-11T05:58:26;4.93;;;4.05;;
33162;SDS011;29282;45.656;11.302;2023-02-11T06:00:52;4.38;;;3.53;;
33162;SDS011;29282;45.656;11.302;2023-02-11T06:03:17;4.88;;;4.03;;
33162;SDS011;29282;45.656;11.302;2023-02-11T06:05:43;5.32;;;4.20;;
33162;SDS011;29282;45.656;11.302;2023-02-11T06:08:12;4.93;;;3.90;;
33162;SDS011;29282;45.656;11.302;2023-02-11T06:10:37;5.22;;;3.95;;
33162;SDS011;29282;45.656;11.302;2023-02-11T06:13:03;5.13;;;4.05;;
33162;SDS011;29282;45.656;11.302;2023-02-11T06:15:28;4.70;;;3.90;;
33162;SDS011;29282;45.656;11.302;2023-02-11T06:17:57;4.40;;;3.83;;
33162;SDS011;29282;45.656;11.302;2023-02-11T06:20:22;5.05;;;3.90;;
33162;SDS011;29282;45.656;11.302;2023-02-11T06:22:51;4.72;;;3.92;;
33162;SDS011;29282;45.656;11.302;2023-02-11T06:25:16;4.85;;;4.22;;
33162;SDS011;29282;45.656;11.302;2023-02-11T06:27:42;4.45;;;3.80;;
33162;SDS011;29282;45.656;11.302;2023-02-11T06:30:07;4.63;;;3.78;;
33162;SDS011;29282;45.656;11.302;2023-02-11T06:32:34;5.47;;;3.80;;
33162;SDS011;29282;45.656;11.302;2023-02-11T06:35:00;4.70;;;4.22;;
33162;SDS011;29282;45.656;11.302;2023-02-11T06:37:25;4.15;;;3.65;;
33162;SDS011;29282;45.656;11.302;2023-02-11T06:39:51;5.55;;;4.20;;
33162;SDS011;29282;45.656;11.302;2023-02-11T06:42:16;4.75;;;4.00;;
33162;SDS011;29282;45.656;11.302;2023-02-11T06:44:42;5.18;;;4.25;;
33162;SDS011;29282;45.656;11.302;2023-02-11T06:47:08;4.85;;;3.53;;
33162;SDS011;29282;45.656;11.302;2023-02-11T06:49:34;4.63;;;3.78;;
33162;SDS011;29282;45.656;11.302;2023-02-11T06:51:59;6.10;;;3.75;;
33162;SDS011;29282;45.656;11.302;2023-02-11T06:54:25;4.25;;;3.70;;
33162;SDS011;29282;45.656;11.302;2023-02-11T06:56:53;5.45;;;4.07;;
33162;SDS011;29282;45.656;11.302;2023-02-11T06:59:19;4.38;;;3.63;;
33162;SDS011;29282;45.656;11.302;2023-02-11T07:01:45;4.07;;;3.30;;
33162;SDS011;29282;45.656;11.302;2023-02-11T07:04:13;5.07;;;3.85;;
33162;SDS011;29282;45.656;11.302;2023-02-11T07:06:39;5.53;;;3.90;;
33162;SDS011;29282;45.656;11.302;2023-02-11T07:09:06;5.07;;;3.88;;
33162;SDS011;29282;45.656;11.302;2023-02-11T07:11:32;4.55;;;4.05;;
33162;SDS011;29282;45.656;11.302;2023-02-11T07:14:05;5.32;;;4.07;;
33162;SDS011;29282;45.656;11.302;2023-02-11T07:16:34;4.10;;;3.70;;
33162;SDS011;29282;45.656;11.302;2023-02-11T07:19:00;5.68;;;4.07;;
33162;SDS011;29282;45.656;11.302;2023-02-11T07:21:26;5.82;;;4.38;;
33162;SDS011;29282;45.656;11.302;2023-02-11T07:23:51;5.38;;;4.25;;
33162;SDS011;29282;45.656;11.302;2023-02-11T07:26:19;6.07;;;4.18;;
33162;SDS011;29282;45.656;11.302;2023-02-11T07:28:50;5.20;;;4.30;;
33162;SDS011;29282;45.656;11.302;2023-02-11T07:31:17;5.93;;;4.30;;
33162;SDS011;29282;45.656;11.302;2023-02-11T07:33:45;5.97;;;4.25;;
33162;SDS011;29282;45.656;11.302;2023-02-11T07:36:12;5.13;;;4.63;;
33162;SDS011;29282;45.656;11.302;2023-02-11T07:38:39;5.25;;;4.55;;
33162;SDS011;29282;45.656;11.302;2023-02-11T07:41:06;5.57;;;4.63;;
33162;SDS011;29282;45.656;11.302;2023-02-11T07:43:33;5.65;;;4.85;;
33162;SDS011;29282;45.656;11.302;2023-02-11T07:46:03;5.57;;;4.60;;
33162;SDS011;29282;45.656;11.302;2023-02-11T07:48:30;5.38;;;4.28;;
33162;SDS011;29282;45.656;11.302;2023-02-11T07:51:03;5.75;;;4.55;;
33162;SDS011;29282;45.656;11.302;2023-02-11T07:53:33;5.90;;;4.78;;
33162;SDS011;29282;45.656;11.302;2023-02-11T07:55:59;6.28;;;5.20;;
33162;SDS011;29282;45.656;11.302;2023-02-11T07:58:24;5.93;;;5.10;;
33162;SDS011;29282;45.656;11.302;2023-02-11T08:00:50;8.45;;;5.40;;
33162;SDS011;29282;45.656;11.302;2023-02-11T08:03:15;5.43;;;4.70;;
33162;SDS011;29282;45.656;11.302;2023-02-11T08:05:41;6.22;;;5.00;;
33162;SDS011;29282;45.656;11.302;2023-02-11T08:08:07;5.93;;;4.88;;
33162;SDS011;29282;45.656;11.302;2023-02-11T08:10:33;6.45;;;5.15;;
33162;SDS011;29282;45.656;11.302;2023-02-11T08:12:58;6.50;;;5.55;;
33162;SDS011;29282;45.656;11.302;2023-02-11T08:15:24;7.32;;;5.35;;
33162;SDS011;29282;45.656;11.302;2023-02-11T08:17:50;6.25;;;5.05;;
33162;SDS011;29282;45.656;11.302;2023-02-11T08:20:15;5.25;;;4.70;;
33162;SDS011;29282;45.656;11.302;2023-02-11T08:22:41;5.28;;;4.75;;
33162;SDS011;29282;45.656;11.302;2023-02-11T08:25:06;6.18;;;5.03;;
33162;SDS011;29282;45.656;11.302;2023-02-11T08:27:32;6.55;;;5.63;;
33162;SDS011;29282;45.656;11.302;2023-02-11T08:29:58;7.55;;;5.70;;
33162;SDS011;29282;45.656;11.302;2023-02-11T08:32:24;6.15;;;5.55;;
33162;SDS011;29282;45.656;11.302;2023-02-11T08:34:50;7.10;;;5.60;;
33162;SDS011;29282;45.656;11.302;2023-02-11T08:37:17;7.78;;;5.57;;
33162;SDS011;29282;45.656;11.302;2023-02-11T08:39:42;9.27;;;6.47;;
33162;SDS011;29282;45.656;11.302;2023-02-11T08:42:08;6.70;;;5.90;;
33162;SDS011;29282;45.656;11.302;2023-02-11T08:44:34;8.18;;;6.78;;
33162;SDS011;29282;45.656;11.302;2023-02-11T08:47:00;6.70;;;5.90;;
33162;SDS011;29282;45.656;11.302;2023-02-11T08:49:25;7.93;;;5.97;;
33162;SDS011;29282;45.656;11.302;2023-02-11T08:51:51;8.57;;;6.38;;
33162;SDS011;29282;45.656;11.302;2023-02-11T08:54:18;8.02;;;6.20;;
33162;SDS011;29282;45.656;11.302;2023-02-11T08:56:43;7.15;;;6.10;;
33162;SDS011;29282;45.656;11.302;2023-02-11T08:59:11;6.82;;;5.95;;
33162;SDS011;29282;45.656;11.302;2023-02-11T09:01:41;8.07;;;6.30;;
33162;SDS011;29282;45.656;11.302;2023-02-11T09:04:08;10.15;;;6.03;;
33162;SDS011;29282;45.656;11.302;2023-02-11T09:06:34;11.02;;;6.80;;
33162;SDS011;29282;45.656;11.302;2023-02-11T09:08:59;10.90;;;6.35;;
33162;SDS011;29282;45.656;11.302;2023-02-11T09:11:30;9.88;;;6.15;;
33162;SDS011;29282;45.656;11.302;2023-02-11T09:16:26;16.58;;;7.53;;
33162;SDS011;29282;45.656;11.302;2023-02-11T09:18:57;13.55;;;7.50;;
33162;SDS011;29282;45.656;11.302;2023-02-11T09:21:24;21.95;;;8.00;;
33162;SDS011;29282;45.656;11.302;2023-02-11T09:23:50;19.85;;;8.23;;
33162;SDS011;29282;45.656;11.302;2023-02-11T09:26:17;21.20;;;7.47;;
33162;SDS011;29282;45.656;11.302;2023-02-11T09:28:53;23.10;;;8.48;;
33162;SDS011;29282;45.656;11.302;2023-02-11T09:31:20;20.45;;;8.15;;
33162;SDS011;29282;45.656;11.302;2023-02-11T09:33:48;19.23;;;8.45;;
33162;SDS011;29282;45.656;11.302;2023-02-11T09:36:25;23.35;;;8.50;;
33162;SDS011;29282;45.656;11.302;2023-02-11T09:38:53;21.23;;;8.00;;
33162;SDS011;29282;45.656;11.302;2023-02-11T09:43:47;17.67;;;8.15;;
33162;SDS011;29282;45.656;11.302;2023-02-11T09:46:15;16.58;;;7.20;;
33162;SDS011;29282;45.656;11.302;2023-02-11T09:48:44;22.33;;;8.27;;
33162;SDS011;29282;45.656;11.302;2023-02-11T09:51:18;17.27;;;7.70;;
33162;SDS011;29282;45.656;11.302;2023-02-11T09:53:50;24.35;;;7.30;;
33162;SDS011;29282;45.656;11.302;2023-02-11T09:56:20;16.58;;;7.47;;
33162;SDS011;29282;45.656;11.302;2023-02-11T09:58:47;16.65;;;7.65;;
33162;SDS011;29282;45.656;11.302;2023-02-11T10:04:34;18.95;;;8.32;;
33162;SDS011;29282;45.656;11.302;2023-02-11T10:15:20;17.48;;;7.90;;
33162;SDS011;29282;45.656;11.302;2023-02-11T10:23:25;19.55;;;7.50;;
33162;SDS011;29282;45.656;11.302;2023-02-11T10:25:55;14.25;;;7.20;;
33162;SDS011;29282;45.656;11.302;2023-02-11T10:28:26;16.38;;;7.65;;
33162;SDS011;29282;45.656;11.302;2023-02-11T10:30:56;18.33;;;8.20;;
33162;SDS011;29282;45.656;11.302;2023-02-11T10:36:18;22.45;;;7.78;;
33162;SDS011;29282;45.656;11.302;2023-02-11T10:38:47;19.48;;;7.90;;
33162;SDS011;29282;45.656;11.302;2023-02-11T10:41:19;18.35;;;8.40;;
33162;SDS011;29282;45.656;11.302;2023-02-11T10:46:18;15.20;;;7.72;;
33162;SDS011;29282;45.656;11.302;2023-02-11T10:48:51;14.00;;;7.00;;
33162;SDS011;29282;45.656;11.302;2023-02-11T10:53:43;12.48;;;6.95;;
33162;SDS011;29282;45.656;11.302;2023-02-11T10:56:18;22.13;;;7.88;;
33162;SDS011;29282;45.656;11.302;2023-02-11T10:58:58;14.10;;;7.57;;
33162;SDS011;29282;45.656;11.302;2023-02-11T11:01:44;16.88;;;7.43;;
33162;SDS011;29282;45.656;11.302;2023-02-11T11:06:50;16.52;;;7.30;;
33162;SDS011;29282;45.656;11.302;2023-02-11T11:09:28;17.95;;;7.82;;
33162;SDS011;29282;45.656;11.302;2023-02-11T11:11:55;18.92;;;8.75;;
33162;SDS011;29282;45.656;11.302;2023-02-11T11:14:20;24.40;;;9.13;;
33162;SDS011;29282;45.656;11.302;2023-02-11T11:16:52;21.35;;;8.70;;
33162;SDS011;29282;45.656;11.302;2023-02-11T11:19:22;25.38;;;9.60;;
33162;SDS011;29282;45.656;11.302;2023-02-11T11:21:50;18.65;;;8.10;;
33162;SDS011;29282;45.656;11.302;2023-02-11T11:24:30;20.38;;;8.52;;
33162;SDS011;29282;45.656;11.302;2023-02-11T11:27:02;14.68;;;7.63;;
33162;SDS011;29282;45.656;11.302;2023-02-11T11:32:13;15.38;;;7.97;;
33162;SDS011;29282;45.656;11.302;2023-02-11T11:34:51;19.17;;;8.13;;
33162;SDS011;29282;45.656;11.302;2023-02-11T11:37:30;18.08;;;8.02;;
33162;SDS011;29282;45.656;11.302;2023-02-11T11:40:06;18.48;;;7.95;;
33162;SDS011;29282;45.656;11.302;2023-02-11T11:42:33;16.08;;;7.43;;
33162;SDS011;29282;45.656;11.302;2023-02-11T11:45:01;16.02;;;7.50;;
33162;SDS011;29282;45.656;11.302;2023-02-11T11:47:53;19.73;;;7.32;;
33162;SDS011;29282;45.656;11.302;2023-02-11T11:55:59;14.82;;;6.70;;
33162;SDS011;29282;45.656;11.302;2023-02-11T11:58:28;13.27;;;7.55;;
33162;SDS011;29282;45.656;11.302;2023-02-11T12:01:08;17.65;;;6.88;;
33162;SDS011;29282;45.656;11.302;2023-02-11T12:14:12;14.85;;;6.80;;
33162;SDS011;29282;45.656;11.302;2023-02-11T12:29:22;17.25;;;7.07;;
33162;SDS011;29282;45.656;11.302;2023-02-11T12:32:16;12.65;;;6.97;;
33162;SDS011;29282;45.656;11.302;2023-02-11T12:37:44;13.48;;;6.88;;
33162;SDS011;29282;45.656;11.302;2023-02-11T12:40:25;15.00;;;7.05;;
33162;SDS011;29282;45.656;11.302;2023-02-11T12:56:44;11.07;;;6.55;;
33162;SDS011;29282;45.656;11.302;2023-02-11T13:02:14;13.48;;;6.03;;
33162;SDS011;29282;45.656;11.302;2023-02-11T13:04:49;12.07;;;6.45;;
33162;SDS011;29282;45.656;11.302;2023-02-11T13:07:28;13.55;;;6.22;;
33162;SDS011;29282;45.656;11.302;2023-02-11T13:12:40;12.25;;;6.45;;
33162;SDS011;29282;45.656;11.302;2023-02-11T13:15:27;15.13;;;6.90;;
33162;SDS011;29282;45.656;11.302;2023-02-11T13:20:42;11.98;;;6.57;;
33162;SDS011;29282;45.656;11.302;2023-02-11T13:42:52;10.05;;;5.63;;
33162;SDS011;29282;45.656;11.302;2023-02-11T13:48:17;10.13;;;5.90;;
33162;SDS011;29282;45.656;11.302;2023-02-11T13:50:50;9.77;;;5.70;;
33162;SDS011;29282;45.656;11.302;2023-02-11T13:53:25;11.00;;;5.97;;
33162;SDS011;29282;45.656;11.302;2023-02-11T13:55:52;11.82;;;6.30;;
33162;SDS011;29282;45.656;11.302;2023-02-11T13:58:32;9.70;;;6.22;;
33162;SDS011;29282;45.656;11.302;2023-02-11T14:01:01;11.57;;;5.22;;
33162;SDS011;29282;45.656;11.302;2023-02-11T14:03:28;12.35;;;6.20;;
33162;SDS011;29282;45.656;11.302;2023-02-11T14:06:26;10.43;;;6.00;;
33162;SDS011;29282;45.656;11.302;2023-02-11T14:09:32;12.77;;;5.50;;
33162;SDS011;29282;45.656;11.302;2023-02-11T14:12:19;12.80;;;6.15;;
33162;SDS011;29282;45.656;11.302;2023-02-11T14:15:24;9.38;;;5.93;;
33162;SDS011;29282;45.656;11.302;2023-02-11T14:17:44;9.57;;;5.72;;
33162;SDS011;29282;45.656;11.302;2023-02-11T14:23:01;17.75;;;6.68;;
33162;SDS011;29282;45.656;11.302;2023-02-11T14:25:31;11.95;;;6.20;;
33162;SDS011;29282;45.656;11.302;2023-02-11T14:28:00;10.75;;;5.90;;
33162;SDS011;29282;45.656;11.302;2023-02-11T14:30:41;14.45;;;6.00;;
33162;SDS011;29282;45.656;11.302;2023-02-11T14:38:46;16.92;;;7.05;;
33162;SDS011;29282;45.656;11.302;2023-02-11T14:41:18;12.93;;;6.18;;
33162;SDS011;29282;45.656;11.302;2023-02-11T14:43:50;15.88;;;6.93;;
33162;SDS011;29282;45.656;11.302;2023-02-11T14:46:20;10.02;;;5.90;;
33162;SDS011;29282;45.656;11.302;2023-02-11T14:48:48;16.15;;;6.45;;
33162;SDS011;29282;45.656;11.302;2023-02-11T14:51:49;14.18;;;6.50;;
33162;SDS011;29282;45.656;11.302;2023-02-11T14:54:13;10.05;;;6.28;;
33162;SDS011;29282;45.656;11.302;2023-02-11T14:56:41;16.38;;;6.88;;
33162;SDS011;29282;45.656;11.302;2023-02-11T14:59:19;14.40;;;6.50;;
33162;SDS011;29282;45.656;11.302;2023-02-11T15:01:48;16.75;;;6.68;;
33162;SDS011;29282;45.656;11.302;2023-02-11T15:04:25;17.02;;;6.53;;
33162;SDS011;29282;45.656;11.302;2023-02-11T15:06:53;16.13;;;6.78;;
33162;SDS011;29282;45.656;11.302;2023-02-11T15:09:22;14.45;;;6.38;;
33162;SDS011;29282;45.656;11.302;2023-02-11T15:11:56;13.35;;;6.38;;
33162;SDS011;29282;45.656;11.302;2023-02-11T15:14:32;16.48;;;6.68;;
33162;SDS011;29282;45.656;11.302;2023-02-11T15:17:03;12.43;;;6.70;;
33162;SDS011;29282;45.656;11.302;2023-02-11T15:19:38;10.73;;;6.60;;
33162;SDS011;29282;45.656;11.302;2023-02-11T15:22:17;17.10;;;7.20;;
33162;SDS011;29282;45.656;11.302;2023-02-11T15:24:44;11.00;;;6.35;;
33162;SDS011;29282;45.656;11.302;2023-02-11T15:27:11;10.35;;;6.30;;
33162;SDS011;29282;45.656;11.302;2023-02-11T15:29:46;20.55;;;7.05;;
33162;SDS011;29282;45.656;11.302;2023-02-11T15:34:48;11.25;;;6.43;;
33162;SDS011;29282;45.656;11.302;2023-02-11T15:37:20;12.15;;;6.22;;
33162;SDS011;29282;45.656;11.302;2023-02-11T15:39:50;11.50;;;6.93;;
33162;SDS011;29282;45.656;11.302;2023-02-11T15:42:27;13.57;;;6.50;;
33162;SDS011;29282;45.656;11.302;2023-02-11T15:45:07;14.32;;;6.43;;
33162;SDS011;29282;45.656;11.302;2023-02-11T15:47:41;11.52;;;6.20;;
33162;SDS011;29282;45.656;11.302;2023-02-11T15:52:45;12.27;;;7.07;;
33162;SDS011;29282;45.656;11.302;2023-02-11T15:55:12;12.27;;;6.70;;
33162;SDS011;29282;45.656;11.302;2023-02-11T15:57:41;14.60;;;6.82;;
33162;SDS011;29282;45.656;11.302;2023-02-11T16:00:33;10.60;;;6.57;;
33162;SDS011;29282;45.656;11.302;2023-02-11T16:03:21;13.05;;;6.97;;
33162;SDS011;29282;45.656;11.302;2023-02-11T16:05:48;11.50;;;6.68;;
33162;SDS011;29282;45.656;11.302;2023-02-11T16:08:24;16.10;;;7.00;;
33162;SDS011;29282;45.656;11.302;2023-02-11T16:11:00;17.92;;;8.27;;
33162;SDS011;29282;45.656;11.302;2023-02-11T16:13:32;15.32;;;7.25;;
33162;SDS011;29282;45.656;11.302;2023-02-11T16:16:22;11.05;;;7.25;;
33162;SDS011;29282;45.656;11.302;2023-02-11T16:18:51;12.90;;;7.47;;
33162;SDS011;29282;45.656;11.302;2023-02-11T16:21:23;14.00;;;7.80;;
33162;SDS011;29282;45.656;11.302;2023-02-11T16:23:57;14.38;;;7.65;;
33162;SDS011;29282;45.656;11.302;2023-02-11T16:26:28;20.35;;;7.65;;
33162;SDS011;29282;45.656;11.302;2023-02-11T16:29:28;15.88;;;7.38;;
33162;SDS011;29282;45.656;11.302;2023-02-11T16:31:51;19.60;;;7.95;;
33162;SDS011;29282;45.656;11.302;2023-02-11T16:34:20;18.75;;;8.20;;
33162;SDS011;29282;45.656;11.302;2023-02-11T16:36:50;15.68;;;8.10;;
33162;SDS011;29282;45.656;11.302;2023-02-11T16:39:16;14.30;;;7.65;;
33162;SDS011;29282;45.656;11.302;2023-02-11T16:41:45;14.57;;;7.65;;
33162;SDS011;29282;45.656;11.302;2023-02-11T16:44:11;16.77;;;8.32;;
33162;SDS011;29282;45.656;11.302;2023-02-11T16:46:37;17.52;;;7.80;;
33162;SDS011;29282;45.656;11.302;2023-02-11T16:49:16;15.85;;;8.38;;
33162;SDS011;29282;45.656;11.302;2023-02-11T16:51:46;16.58;;;8.13;;
33162;SDS011;29282;45.656;11.302;2023-02-11T16:54:17;14.77;;;8.02;;
33162;SDS011;29282;45.656;11.302;2023-02-11T16:56:43;15.30;;;7.60;;
33162;SDS011;29282;45.656;11.302;2023-02-11T16:59:09;13.25;;;7.90;;
33162;SDS011;29282;45.656;11.302;2023-02-11T17:01:35;16.60;;;7.90;;
33162;SDS011;29282;45.656;11.302;2023-02-11T17:04:02;14.73;;;7.10;;
33162;SDS011;29282;45.656;11.302;2023-02-11T17:06:29;10.98;;;7.65;;
33162;SDS011;29282;45.656;11.302;2023-02-11T17:08:55;14.13;;;8.27;;
33162;SDS011;29282;45.656;11.302;2023-02-11T17:11:20;15.05;;;7.85;;
33162;SDS011;29282;45.656;11.302;2023-02-11T17:13:46;15.00;;;9.00;;
33162;SDS011;29282;45.656;11.302;2023-02-11T17:16:16;17.02;;;8.50;;
33162;SDS011;29282;45.656;11.302;2023-02-11T17:18:44;16.98;;;8.52;;
33162;SDS011;29282;45.656;11.302;2023-02-11T17:21:10;15.52;;;8.82;;
33162;SDS011;29282;45.656;11.302;2023-02-11T17:23:36;19.30;;;9.07;;
33162;SDS011;29282;45.656;11.302;2023-02-11T17:26:02;14.93;;;8.30;;
33162;SDS011;29282;45.656;11.302;2023-02-11T17:28:28;14.65;;;8.93;;
33162;SDS011;29282;45.656;11.302;2023-02-11T17:30:53;15.20;;;8.80;;
33162;SDS011;29282;45.656;11.302;2023-02-11T17:33:19;19.60;;;8.60;;
33162;SDS011;29282;45.656;11.302;2023-02-11T17:35:45;13.73;;;8.00;;
33162;SDS011;29282;45.656;11.302;2023-02-11T17:38:10;20.20;;;8.60;;